Terminal Aerodrome Forecast
Issued by NWS Brownsville, TX

Home | Current Version | Previous Version | Text Only | Print | Product List | Glossary On
Versions: 1 2 3 4 5 6 7 8 9 10 11 12 13 14 15 16 17 18 19
000
FTUS44 KBRO 041821 AAA
TAFHRL
TAF AMD
KHRL 041821Z 0418/0518 15015G20KT P6SM VCSH FEW025 SCT030
     FM050300 14008KT P6SM SKC
     FM050800 14006KT P6SM BKN040
     FM051500 15012KT P6SM FEW030 SCT250=

USA.gov is the U.S. government's official web portal to all federal, state and local government web resources and services.